Time;durP1;ratioP1;P1;durP2;ratioP2;P2;SDS_P1;SDS_P2;PMS_P1;PMS_P2;Temp;Humidity;BMP_temperature;BMP_pressure;BME280_temperature;BME280_humidity;BME280_pressure;Samples;Min_cycle;Max_cycle;Signal;HPM_P1;HPM_P2
2021/08/12 00:00:59;;;;;;;3.83;2.92;;;16.50;72.00;;;;;;5017174;27;95936;-54
2021/08/12 00:03:30;;;;;;;6.45;3.38;;;16.50;72.10;;;;;;5026633;28;95807;-54
2021/08/12 00:06:13;;;;;;;3.83;2.50;;;16.60;72.40;;;;;;5026148;27;96434;-56
2021/08/12 00:08:43;;;;;;;8.95;3.05;;;16.60;72.50;;;;;;5025049;28;95873;-56
2021/08/12 00:11:15;;;;;;;5.68;2.92;;;16.70;72.60;;;;;;5025705;27;95832;-55
2021/08/12 00:13:45;;;;;;;8.52;3.10;;;16.70;72.60;;;;;;5027010;28;95714;-53
2021/08/12 00:16:15;;;;;;;5.93;2.92;;;16.80;72.70;;;;;;5020818;27;96455;-56
2021/08/12 00:18:52;;;;;;;5.35;3.53;;;16.90;72.70;;;;;;5024491;27;95981;-54
2021/08/12 00:21:26;;;;;;;6.55;2.25;;;16.90;72.60;;;;;;5025044;27;95882;-56
2021/08/12 00:23:59;;;;;;;4.88;2.20;;;16.90;72.70;;;;;;5025761;28;95972;-54
2021/08/12 00:26:30;;;;;;;4.18;2.55;;;17.00;72.60;;;;;;5024185;27;95895;-54
2021/08/12 00:29:04;;;;;;;4.57;2.47;;;17.10;72.60;;;;;;5025019;28;96248;-53
2021/08/12 00:31:36;;;;;;;5.35;2.10;;;17.10;72.60;;;;;;5019993;27;95873;-55
2021/08/12 00:34:09;;;;;;;5.47;2.75;;;17.10;72.60;;;;;;4998741;28;96125;-54
2021/08/12 00:36:40;;;;;;;3.63;2.53;;;17.20;72.40;;;;;;4998221;27;97376;-56
2021/08/12 00:39:11;;;;;;;5.20;2.50;;;17.20;71.20;;;;;;5005832;28;96186;-57
2021/08/12 00:41:43;;;;;;;4.70;2.47;;;17.20;70.90;;;;;;5006362;28;95375;-58
2021/08/12 00:44:16;;;;;;;8.30;2.75;;;17.20;70.90;;;;;;5005261;28;95746;-51
2021/08/12 00:46:47;;;;;;;;;;;17.20;70.90;;;;;;5000938;28;98226;-56
2021/08/12 00:49:20;;;;;;;7.45;2.90;;;17.20;70.80;;;;;;5005892;28;97736;-54
2021/08/12 00:51:55;;;;;;;6.45;2.70;;;17.20;71.00;;;;;;5005497;27;95803;-48
2021/08/12 00:54:25;;;;;;;3.58;2.75;;;17.30;71.20;;;;;;5006183;27;95720;-52
2021/08/12 00:56:55;;;;;;;3.78;2.00;;;17.30;71.20;;;;;;5005279;28;96925;-56
2021/08/12 00:59:28;;;;;;;3.97;2.10;;;17.40;71.40;;;;;;5023231;28;95902;-54
2021/08/12 01:02:00;;;;;;;5.90;2.35;;;17.40;71.40;;;;;;5019282;27;95855;-54
2021/08/12 01:04:31;;;;;;;3.28;2.15;;;17.50;71.40;;;;;;5005864;28;95781;-53
2021/08/12 01:07:09;;;;;;;4.07;2.28;;;17.50;71.30;;;;;;5024520;27;96510;-54
2021/08/12 01:09:45;;;;;;;4.60;2.40;;;17.60;71.60;;;;;;5005014;28;97303;-49
2021/08/12 01:12:27;;;;;;;6.03;2.15;;;17.60;71.90;;;;;;5006629;27;96056;-53
2021/08/12 01:15:11;;;;;;;5.40;2.05;;;17.70;71.90;;;;;;5015355;28;96492;-51
2021/08/12 01:17:53;;;;;;;5.43;2.13;;;17.70;71.90;;;;;;5037018;27;97251;-52
2021/08/12 01:20:40;;;;;;;4.88;1.83;;;17.80;71.70;;;;;;5005302;28;97144;-50
2021/08/12 01:23:14;;;;;;;6.68;2.10;;;17.80;71.70;;;;;;5024651;27;96686;-54
2021/08/12 01:25:47;;;;;;;6.65;2.17;;;17.90;71.50;;;;;;5005533;28;96219;-53
2021/08/12 01:28:26;;;;;;;3.60;1.80;;;17.90;71.40;;;;;;5005547;28;97693;-50
2021/08/12 01:31:12;;;;;;;6.63;2.08;;;18.00;71.40;;;;;;5018423;28;96512;-50
2021/08/12 01:33:53;;;;;;;5.70;2.28;;;18.00;71.40;;;;;;5001827;28;96026;-51
2021/08/12 01:36:26;;;;;;;3.13;1.90;;;18.10;71.20;;;;;;5031635;27;96075;-51
2021/08/12 01:39:00;;;;;;;5.78;1.75;;;18.10;71.20;;;;;;5005858;28;97172;-50
2021/08/12 01:41:30;;;;;;;2.35;1.70;;;18.20;71.20;;;;;;5005623;28;96326;-51
2021/08/12 01:44:01;;;;;;;;;;;18.20;71.20;;;;;;5006451;27;95312;-53
2021/08/12 01:46:35;;;;;;;5.80;2.78;;;18.30;71.20;;;;;;5037867;27;95743;-53
2021/08/12 01:49:07;;;;;;;4.78;2.45;;;18.30;71.10;;;;;;5007496;28;99041;-53
2021/08/12 01:51:38;;;;;;;;;;;18.30;71.10;;;;;;5042077;27;95651;-54
2021/08/12 01:54:09;;;;;;;2.85;1.50;;;18.30;71.10;;;;;;5010302;28;95771;-53
2021/08/12 01:56:43;;;;;;;3.38;1.50;;;18.40;71.10;;;;;;5009392;28;95852;-55
2021/08/12 01:59:16;;;;;;;4.28;1.58;;;18.40;71.00;;;;;;5008102;27;97921;-51
2021/08/12 02:01:48;;;;;;;3.83;1.85;;;18.50;71.40;;;;;;5003480;28;97819;-54
2021/08/12 02:04:20;;;;;;;2.28;1.48;;;18.50;72.40;;;;;;5043036;27;96023;-53
2021/08/12 02:06:52;;;;;;;3.60;1.65;;;18.60;71.80;;;;;;5007198;28;95527;-51
2021/08/12 02:09:24;;;;;;;2.88;1.35;;;18.70;71.50;;;;;;5039418;27;97939;-52
2021/08/12 02:11:55;;;;;;;3.97;2.25;;;18.70;71.10;;;;;;5024466;27;98200;-50
2021/08/12 02:14:29;;;;;;;7.47;1.67;;;18.80;71.00;;;;;;5008880;27;96046;-50
2021/08/12 02:17:00;;;;;;;2.83;1.88;;;18.80;71.10;;;;;;5004649;28;95663;-52
2021/08/12 02:19:33;;;;;;;5.55;2.30;;;18.90;70.80;;;;;;5009472;28;96305;-55
2021/08/12 02:22:20;;;;;;;2.53;1.83;;;18.80;66.90;;;;;;5024148;27;96323;-54
2021/08/12 02:25:10;;;;;;;6.97;2.75;;;18.70;67.30;;;;;;5007522;27;95812;-54
2021/08/12 02:27:47;;;;;;;6.25;2.05;;;18.60;67.30;;;;;;5027219;27;95695;-53
2021/08/12 02:30:19;;;;;;;5.68;2.28;;;18.50;67.60;;;;;;5037977;27;96813;-55
2021/08/12 02:32:53;;;;;;;3.83;1.67;;;18.40;68.10;;;;;;5008404;28;103591;-54
2021/08/12 02:35:25;;;;;;;5.43;2.15;;;18.30;68.50;;;;;;4997384;27;96238;-54
2021/08/12 02:37:58;;;;;;;4.88;1.73;;;18.30;68.50;;;;;;5006860;28;96626;-53
2021/08/12 02:40:30;;;;;;;3.85;1.92;;;18.20;68.70;;;;;;5025933;27;95849;-53
2021/08/12 02:43:02;;;;;;;4.53;2.08;;;18.10;68.80;;;;;;5008862;27;98871;-56
2021/08/12 02:45:35;;;;;;;5.10;2.10;;;18.10;69.00;;;;;;5038225;27;96044;-54
2021/08/12 02:48:09;;;;;;;3.30;1.85;;;18.10;69.00;;;;;;5027469;27;95879;-55
2021/08/12 02:50:43;;;;;;;4.30;1.92;;;18.10;68.90;;;;;;4992880;28;98440;-51
2021/08/12 02:53:16;;;;;;;4.72;1.60;;;18.00;69.10;;;;;;5008404;28;98818;-54
2021/08/12 02:55:49;;;;;;;4.15;1.95;;;18.00;69.10;;;;;;5007865;28;96251;-53
2021/08/12 02:58:20;;;;;;;4.88;2.05;;;18.00;69.30;;;;;;5006941;28;96031;-55
2021/08/12 03:00:52;;;;;;;5.07;1.88;;;18.00;69.40;;;;;;5022071;28;95877;-56
2021/08/12 03:03:24;;;;;;;4.78;2.17;;;18.00;69.40;;;;;;5041133;27;97227;-56
2021/08/12 03:05:56;;;;;;;4.43;1.98;;;18.00;69.40;;;;;;4992747;28;96191;-53
2021/08/12 03:08:27;;;;;;;4.18;2.08;;;18.00;69.40;;;;;;5007212;28;96471;-56
2021/08/12 03:10:58;;;;;;;;;;;18.00;69.30;;;;;;5015538;28;98005;-55
2021/08/12 03:13:29;;;;;;;2.85;1.52;;;17.90;69.40;;;;;;5024443;27;95822;-54
2021/08/12 03:16:00;;;;;;;4.37;2.00;;;17.90;69.50;;;;;;5002290;28;96342;-55
2021/08/12 03:18:35;;;;;;;3.70;1.67;;;17.90;69.70;;;;;;4999873;27;96629;-56
2021/08/12 03:21:08;;;;;;;3.53;2.00;;;17.90;69.70;;;;;;5024543;27;95847;-59
2021/08/12 03:23:38;;;;;;;4.53;1.60;;;17.90;69.80;;;;;;5008154;28;95756;-54
2021/08/12 03:26:10;;;;;;;2.60;1.65;;;17.90;69.80;;;;;;5006569;28;95773;-54
2021/08/12 03:28:41;;;;;;;3.00;1.63;;;17.80;69.80;;;;;;5007102;28;96632;-56
2021/08/12 03:31:13;;;;;;;4.68;2.25;;;17.80;69.80;;;;;;4999844;27;98165;-54
2021/08/12 03:33:44;;;;;;;;;;;17.80;69.90;;;;;;5019583;27;97835;-52
2021/08/12 03:36:15;;;;;;;3.60;2.00;;;17.80;69.90;;;;;;5016794;28;96424;-58
2021/08/12 03:38:46;;;;;;;4.30;2.05;;;17.80;70.00;;;;;;5042811;27;96052;-56
2021/08/12 03:41:18;;;;;;;5.70;2.00;;;17.80;70.10;;;;;;5007553;28;98162;-54
2021/08/12 03:43:52;;;;;;;4.72;1.83;;;17.70;70.10;;;;;;5006942;27;96078;-55
2021/08/12 03:46:23;;;;;;;4.55;2.08;;;17.80;70.10;;;;;;5001628;28;95875;-54
2021/08/12 03:48:54;;;;;;;2.10;1.35;;;17.80;70.10;;;;;;5006716;28;96761;-55
2021/08/12 03:51:25;;;;;;;1.77;1.40;;;17.80;70.10;;;;;;5007352;28;96086;-57
2021/08/12 03:53:57;;;;;;;5.28;1.52;;;17.70;70.10;;;;;;5006862;28;97459;-52
2021/08/12 03:56:28;;;;;;;4.68;1.48;;;17.80;70.10;;;;;;5008325;28;95897;-57
2021/08/12 03:59:04;;;;;;;5.35;1.83;;;17.90;70.00;;;;;;5026701;27;95809;-54
2021/08/12 04:01:36;;;;;;;2.30;1.35;;;18.00;70.00;;;;;;5018213;27;98595;-55
2021/08/12 04:04:10;;;;;;;2.90;1.42;;;18.10;70.20;;;;;;5005139;28;96289;-54
2021/08/12 04:06:43;;;;;;;5.30;2.17;;;18.20;70.10;;;;;;5026623;28;96056;-56
2021/08/12 04:09:17;;;;;;;2.25;1.67;;;18.30;70.00;;;;;;5024514;27;95665;-56
2021/08/12 04:11:51;;;;;;;5.63;1.75;;;18.30;69.90;;;;;;5025719;28;96039;-53
2021/08/12 04:14:25;;;;;;;5.03;1.65;;;18.40;70.00;;;;;;5026303;27;97132;-56
2021/08/12 04:17:00;;;;;;;2.67;1.63;;;18.40;70.00;;;;;;4986841;28;100445;-53
2021/08/12 04:19:36;;;;;;;2.10;1.60;;;18.50;70.00;;;;;;5006555;27;97660;-55
2021/08/12 04:22:10;;;;;;;4.10;1.73;;;18.50;70.10;;;;;;5006428;28;98786;-56
2021/08/12 04:24:42;;;;;;;;;;;18.60;70.10;;;;;;5008306;27;97311;-55
2021/08/12 04:27:14;;;;;;;3.65;1.42;;;18.70;70.20;;;;;;5028446;28;95836;-55
2021/08/12 04:29:46;;;;;;;2.07;1.40;;;18.80;70.20;;;;;;5007580;27;95743;-57
2021/08/12 04:32:17;;;;;;;1.80;1.20;;;18.80;70.10;;;;;;5002653;28;97562;-56
2021/08/12 04:34:48;;;;;;;2.30;1.25;;;18.90;70.20;;;;;;4997824;27;100869;-55
2021/08/12 04:37:20;;;;;;;2.53;1.65;;;18.90;70.20;;;;;;5000454;28;96139;-55
2021/08/12 04:39:51;;;;;;;3.92;1.40;;;19.00;70.20;;;;;;5007059;28;96213;-57
2021/08/12 04:42:23;;;;;;;1.40;1.10;;;19.00;70.30;;;;;;5006428;28;99588;-55
2021/08/12 04:44:53;;;;;;;1.80;1.10;;;19.00;70.20;;;;;;5006452;28;95880;-56
2021/08/12 04:47:23;;;;;;;1.85;1.05;;;19.10;70.50;;;;;;5002411;28;97950;-57
2021/08/12 04:49:53;;;;;;;2.47;1.45;;;19.10;70.40;;;;;;5006804;27;96113;-56
2021/08/12 04:52:24;;;;;;;2.97;1.42;;;19.10;70.30;;;;;;5022733;27;98496;-53
2021/08/12 04:54:54;;;;;;;2.75;1.55;;;19.10;70.30;;;;;;5038849;27;97298;-56
2021/08/12 04:57:26;;;;;;;3.83;1.75;;;19.20;70.30;;;;;;5007363;28;95993;-57
2021/08/12 04:59:56;;;;;;;1.77;1.17;;;19.20;70.20;;;;;;5024628;27;95940;-55
2021/08/12 05:02:26;;;;;;;1.42;1.30;;;19.20;70.20;;;;;;5001389;28;97996;-54
2021/08/12 05:04:57;;;;;;;;;;;19.30;70.20;;;;;;5007502;28;97218;-54
2021/08/12 05:07:27;;;;;;;3.10;1.35;;;19.30;70.30;;;;;;5008228;28;95899;-55
2021/08/12 05:09:58;;;;;;;1.60;1.20;;;19.30;70.30;;;;;;5005781;28;95378;-56
2021/08/12 05:12:31;;;;;;;3.30;1.65;;;19.40;70.40;;;;;;5005354;28;98308;-58
2021/08/12 05:15:02;;;;;;;5.38;1.83;;;19.20;66.80;;;;;;5005963;28;97829;-57
2021/08/12 05:17:33;;;;;;;2.67;1.55;;;19.10;66.90;;;;;;5034280;27;95979;-57
2021/08/12 05:20:05;;;;;;;;;;;19.00;67.20;;;;;;5030022;27;96890;-56
2021/08/12 05:22:37;;;;;;;3.13;1.60;;;19.00;67.20;;;;;;5026416;27;96314;-57
2021/08/12 05:25:09;;;;;;;3.40;1.60;;;19.10;67.00;;;;;;5004470;27;97664;-57
2021/08/12 05:27:41;;;;;;;2.28;1.35;;;19.10;66.90;;;;;;5004327;28;96168;-56
2021/08/12 05:30:12;;;;;;;4.03;2.33;;;19.20;67.00;;;;;;5025011;27;95795;-55
2021/08/12 05:32:48;;;;;;;3.78;1.70;;;19.10;66.90;;;;;;5024447;27;96546;-55
2021/08/12 05:35:21;;;;;;;5.00;2.50;;;19.10;66.90;;;;;;4996515;28;97377;-56
2021/08/12 05:37:52;;;;;;;4.82;3.08;;;19.20;67.00;;;;;;5029789;27;95904;-55
2021/08/12 05:40:25;;;;;;;4.32;2.58;;;19.20;67.10;;;;;;5025239;28;95959;-53
2021/08/12 05:42:57;;;;;;;9.00;4.90;;;19.20;67.10;;;;;;5005189;27;98542;-56
2021/08/12 05:45:27;;;;;;;15.55;7.70;;;19.20;67.20;;;;;;5017704;28;98116;-57
2021/08/12 05:47:57;;;;;;;12.82;6.55;;;19.30;67.60;;;;;;5005859;27;95966;-55
2021/08/12 05:50:27;;;;;;;11.32;5.85;;;19.30;67.60;;;;;;5006083;28;95279;-56
2021/08/12 05:52:58;;;;;;;11.33;6.67;;;19.30;67.50;;;;;;5005414;27;98213;-58
2021/08/12 05:55:30;;;;;;;13.60;6.28;;;19.30;67.60;;;;;;5005066;27;96031;-54
2021/08/12 05:58:01;;;;;;;;;;;19.30;67.70;;;;;;5019647;27;96034;-55
2021/08/12 06:00:32;;;;;;;10.25;5.90;;;19.30;67.60;;;;;;5016429;27;96129;-58
2021/08/12 06:03:07;;;;;;;12.93;6.60;;;19.40;67.70;;;;;;5003442;28;97992;-56
2021/08/12 06:05:38;;;;;;;11.75;6.90;;;19.30;67.70;;;;;;5023756;27;95675;-55
2021/08/12 06:08:19;;;;;;;11.05;5.30;;;19.30;67.80;;;;;;5023441;28;95832;-54
2021/08/12 06:10:50;;;;;;;10.13;6.38;;;19.40;67.90;;;;;;5006443;28;95946;-56
2021/08/12 06:13:20;;;;;;;11.02;5.80;;;19.40;68.00;;;;;;5005155;28;96996;-56
2021/08/12 06:15:51;;;;;;;12.10;6.82;;;19.30;68.20;;;;;;4999219;28;97232;-57
2021/08/12 06:18:24;;;;;;;11.82;6.28;;;19.30;68.30;;;;;;5003092;28;96275;-57
2021/08/12 06:20:56;;;;;;;11.70;6.95;;;19.30;68.20;;;;;;5039101;27;98436;-56
2021/08/12 06:23:26;;;;;;;;;;;19.30;68.20;;;;;;5024723;28;96232;-56
2021/08/12 06:25:58;;;;;;;11.15;6.60;;;19.30;68.10;;;;;;5039737;27;96326;-56
2021/08/12 06:28:32;;;;;;;12.00;7.43;;;19.20;68.00;;;;;;5005770;28;95853;-57
2021/08/12 06:31:04;;;;;;;12.45;6.82;;;19.20;68.10;;;;;;5000447;28;96590;-56
2021/08/12 06:33:35;;;;;;;11.60;6.75;;;19.20;68.10;;;;;;5001828;28;98367;-57
2021/08/12 06:36:07;;;;;;;17.75;8.80;;;19.10;68.70;;;;;;4997336;28;96409;-56
2021/08/12 06:38:38;;;;;;;14.13;8.05;;;19.20;68.10;;;;;;4993454;28;96038;-58
2021/08/12 06:41:08;;;;;;;13.53;8.63;;;19.10;68.00;;;;;;5009088;27;95938;-57
2021/08/12 06:43:46;;;;;;;18.40;9.45;;;19.10;68.00;;;;;;5025893;28;96283;-56
2021/08/12 06:46:18;;;;;;;19.70;8.93;;;19.00;68.00;;;;;;5004643;28;95907;-55
2021/08/12 06:48:49;;;;;;;19.85;9.48;;;19.00;68.20;;;;;;5024196;28;95777;-52
2021/08/12 06:51:39;;;;;;;15.27;9.90;;;19.00;68.40;;;;;;5007000;28;95982;-55
2021/08/12 06:54:14;;;;;;;18.15;9.68;;;19.00;68.40;;;;;;5006193;27;96664;-57
2021/08/12 06:56:44;;;;;;;17.25;9.88;;;19.00;68.50;;;;;;5023325;27;95819;-57
2021/08/12 06:59:14;;;;;;;19.00;10.17;;;19.00;68.50;;;;;;5007060;28;96118;-55
2021/08/12 07:01:45;;;;;;;18.60;11.02;;;19.00;68.50;;;;;;5000546;28;96223;-54
2021/08/12 07:04:16;;;;;;;18.42;11.65;;;19.00;68.40;;;;;;5006128;28;96716;-52
2021/08/12 07:06:49;;;;;;;18.77;10.70;;;19.00;68.40;;;;;;5005519;28;96078;-52
2021/08/12 07:09:21;;;;;;;;;;;19.00;68.50;;;;;;5015333;28;96063;-56
2021/08/12 07:11:52;;;;;;;17.13;9.93;;;18.90;68.40;;;;;;5029201;27;95649;-56
2021/08/12 07:14:22;;;;;;;16.73;11.02;;;18.90;68.40;;;;;;5041615;27;98026;-57
2021/08/12 07:16:55;;;;;;;16.38;10.75;;;18.80;68.40;;;;;;5007885;27;96290;-55
2021/08/12 07:19:28;;;;;;;20.40;12.30;;;18.80;68.50;;;;;;5006561;28;96006;-56
2021/08/12 07:22:00;;;;;;;20.83;13.27;;;18.80;69.10;;;;;;5007288;28;95767;-56
2021/08/12 07:24:31;;;;;;;25.05;14.02;;;18.80;68.50;;;;;;5006068;28;98379;-54
2021/08/12 07:27:03;;;;;;;23.83;13.75;;;18.70;68.70;;;;;;4998781;28;95793;-56
2021/08/12 07:29:34;;;;;;;23.02;13.57;;;18.70;68.80;;;;;;5040575;27;96327;-55
2021/08/12 07:32:06;;;;;;;24.05;14.30;;;18.70;68.80;;;;;;5002238;27;96609;-55
2021/08/12 07:34:47;;;;;;;17.35;12.52;;;18.70;68.70;;;;;;4995183;28;98165;-56
2021/08/12 07:37:18;;;;;;;20.05;13.75;;;18.70;68.80;;;;;;5018520;27;97024;-56
2021/08/12 07:39:48;;;;;;;23.60;14.00;;;18.70;68.80;;;;;;5006386;28;95326;-53
2021/08/12 07:42:19;;;;;;;27.52;16.50;;;18.70;68.60;;;;;;5022284;27;96372;-54
2021/08/12 07:44:53;;;;;;;27.15;17.45;;;18.80;68.50;;;;;;5006919;28;97916;-52
2021/08/12 07:47:25;;;;;;;25.70;16.52;;;18.90;68.30;;;;;;5001825;27;99477;-56
2021/08/12 07:49:55;;;;;;;24.42;15.45;;;18.90;68.30;;;;;;4988876;28;95410;-57
2021/08/12 07:52:27;;;;;;;24.77;16.63;;;19.00;68.30;;;;;;5024359;27;96704;-57
2021/08/12 07:54:57;;;;;;;23.00;16.75;;;19.00;68.30;;;;;;5024882;28;95862;-56
2021/08/12 07:57:26;;;;;;;21.83;15.40;;;19.10;68.30;;;;;;5025099;28;95852;-55
2021/08/12 07:59:56;;;;;;;23.40;15.70;;;19.10;68.30;;;;;;5025850;27;95786;-55
2021/08/12 08:02:26;;;;;;;22.58;14.75;;;19.10;68.30;;;;;;5001065;28;96683;-55
2021/08/12 08:04:58;;;;;;;19.85;14.25;;;19.10;68.20;;;;;;5023754;27;96430;-56
2021/08/12 08:07:30;;;;;;;23.38;14.45;;;19.10;68.20;;;;;;5006760;28;96469;-55
2021/08/12 08:09:59;;;;;;;22.27;14.27;;;19.10;68.40;;;;;;5024019;27;95430;-53
2021/08/12 08:12:30;;;;;;;21.20;14.15;;;19.10;68.60;;;;;;5024724;28;95688;-56
2021/08/12 08:15:03;;;;;;;21.17;13.77;;;19.00;68.70;;;;;;5024942;27;96483;-50
2021/08/12 08:17:36;;;;;;;21.30;14.25;;;19.00;69.00;;;;;;5023748;28;98377;-56
2021/08/12 08:20:11;;;;;;;20.10;13.85;;;19.10;68.80;;;;;;5023971;27;95733;-54
2021/08/12 08:22:45;;;;;;;20.45;13.63;;;19.10;68.90;;;;;;5025298;28;95699;-56
2021/08/12 08:25:18;;;;;;;18.60;13.38;;;19.00;68.70;;;;;;5025348;27;96997;-54
2021/08/12 08:27:52;;;;;;;22.90;13.98;;;19.00;68.70;;;;;;5024155;28;95951;-56
2021/08/12 08:30:30;;;;;;;18.48;12.65;;;19.00;69.30;;;;;;5020419;27;95735;-53
2021/08/12 08:33:03;;;;;;;26.65;13.90;;;19.00;68.60;;;;;;5005010;28;98268;-52
2021/08/12 08:35:37;;;;;;;21.40;14.23;;;18.90;68.50;;;;;;5011965;27;96439;-55
2021/08/12 08:38:10;;;;;;;18.70;12.40;;;18.90;68.50;;;;;;5024026;27;97919;-56
2021/08/12 08:40:42;;;;;;;19.15;12.20;;;18.80;68.50;;;;;;5023903;27;95833;-56
2021/08/12 08:43:20;;;;;;;20.10;13.48;;;18.80;68.50;;;;;;5005008;28;95848;-52
2021/08/12 08:46:03;;;;;;;15.85;11.80;;;18.80;68.50;;;;;;5019853;27;96963;-57
2021/08/12 08:48:36;;;;;;;15.33;10.90;;;18.70;68.60;;;;;;5004732;28;95471;-55
2021/08/12 08:51:12;;;;;;;19.45;12.32;;;18.70;68.60;;;;;;5005156;28;96437;-56
2021/08/12 08:53:46;;;;;;;17.58;11.88;;;18.70;68.70;;;;;;5005289;27;96703;-56
2021/08/12 08:56:19;;;;;;;15.38;11.57;;;18.70;68.70;;;;;;5022378;27;97446;-56
2021/08/12 08:58:49;;;;;;;17.05;12.60;;;18.60;68.70;;;;;;5023849;28;95873;-56
2021/08/12 09:01:21;;;;;;;15.88;11.75;;;18.60;68.80;;;;;;5000632;27;96920;-57
2021/08/12 09:03:53;;;;;;;14.48;10.90;;;18.60;68.80;;;;;;5022252;27;95232;-57
2021/08/12 09:06:24;;;;;;;18.52;12.65;;;18.60;68.90;;;;;;5022682;27;96554;-55
2021/08/12 09:09:00;;;;;;;15.63;9.95;;;18.50;68.90;;;;;;5021410;27;96197;-56
2021/08/12 09:11:30;;;;;;;14.98;11.35;;;18.50;69.00;;;;;;5023424;27;95283;-57
2021/08/12 09:14:20;;;;;;;19.30;11.27;;;18.50;69.60;;;;;;5024043;27;95677;-56
2021/08/12 09:17:18;;;;;;;16.15;10.43;;;18.50;69.10;;;;;;5002735;28;100633;-58
2021/08/12 09:20:09;;;;;;;17.17;10.85;;;18.50;69.20;;;;;;5003405;27;95995;-56
2021/08/12 09:23:02;;;;;;;15.00;9.18;;;18.50;69.30;;;;;;5021665;27;96045;-55
2021/08/12 09:25:46;;;;;;;13.48;9.13;;;18.40;69.40;;;;;;5022862;27;96511;-56
2021/08/12 09:28:22;;;;;;;15.70;9.40;;;18.40;69.50;;;;;;5022090;27;96322;-56
2021/08/12 09:30:59;;;;;;;15.52;9.95;;;18.30;69.50;;;;;;5020030;27;96003;-57
2021/08/12 09:33:31;;;;;;;13.82;9.55;;;18.30;69.30;;;;;;5020357;27;95935;-57
2021/08/12 09:36:04;;;;;;;15.15;9.80;;;18.30;69.30;;;;;;4995721;28;95785;-56
2021/08/12 09:38:40;;;;;;;13.40;9.02;;;18.30;69.20;;;;;;5023992;27;95899;-55
2021/08/12 09:41:47;;;;;;;15.02;9.15;;;18.30;69.20;;;;;;5023213;27;96367;-57
2021/08/12 09:44:36;;;;;;;13.43;8.17;;;18.30;69.20;;;;;;5022701;27;96513;-55
2021/08/12 09:47:20;;;;;;;13.10;8.40;;;18.30;69.20;;;;;;5019135;27;95512;-57
2021/08/12 09:49:54;;;;;;;12.63;8.13;;;18.30;69.20;;;;;;5022768;27;95868;-54
2021/08/12 09:52:31;;;;;;;12.93;8.48;;;18.30;69.10;;;;;;5023646;27;95709;-59
2021/08/12 09:55:13;;;;;;;12.68;7.70;;;18.30;69.50;;;;;;5022619;27;95629;-55
2021/08/12 09:57:47;;;;;;;12.55;8.82;;;18.20;69.70;;;;;;5022910;27;95656;-56
2021/08/12 10:00:31;;;;;;;11.10;8.15;;;18.10;69.80;;;;;;5016233;27;95899;-59
2021/08/12 10:03:31;;;;;;;11.05;7.57;;;18.10;70.00;;;;;;5003946;27;98259;-56
2021/08/12 10:06:04;;;;;;;11.55;7.60;;;18.00;70.00;;;;;;5023750;27;95294;-57
2021/08/12 10:08:36;;;;;;;;;;;18.00;70.10;;;;;;5027305;27;96193;-55
2021/08/12 10:11:28;;;;;;;13.07;8.63;;;18.00;70.20;;;;;;5028627;27;96463;-56
2021/08/12 10:14:00;;;;;;;12.63;7.35;;;17.90;70.20;;;;;;5027608;27;95906;-55
2021/08/12 10:16:34;;;;;;;9.65;6.90;;;17.90;70.40;;;;;;5021819;27;95901;-57
2021/08/12 10:19:11;;;;;;;12.73;7.20;;;17.80;70.40;;;;;;5026236;27;95506;-58
2021/08/12 10:21:42;;;;;;;10.40;7.20;;;17.80;70.40;;;;;;5027302;27;96487;-56
2021/08/12 10:24:13;;;;;;;10.65;7.93;;;17.80;70.50;;;;;;5028477;27;95874;-56
2021/08/12 10:26:46;;;;;;;10.32;6.97;;;17.80;70.50;;;;;;5030047;27;95944;-54
2021/08/12 10:29:23;;;;;;;10.77;7.35;;;17.70;70.70;;;;;;5030671;27;95958;-58
2021/08/12 10:31:54;;;;;;;8.38;6.35;;;17.60;71.00;;;;;;5025501;27;97676;-58
2021/08/12 10:34:26;;;;;;;11.27;7.40;;;17.50;70.70;;;;;;5021045;27;96852;-56
2021/08/12 10:36:57;;;;;;;8.48;5.97;;;17.50;71.40;;;;;;5005977;27;95954;-57
2021/08/12 10:39:28;;;;;;;9.18;5.95;;;17.40;71.60;;;;;;5047566;27;95914;-54
2021/08/12 10:41:58;;;;;;;9.73;6.55;;;17.30;71.90;;;;;;5035331;27;96556;-55
2021/08/12 10:44:29;;;;;;;10.50;6.72;;;17.40;71.80;;;;;;5026301;27;96033;-54
2021/08/12 10:47:01;;;;;;;9.63;6.37;;;17.50;71.50;;;;;;5021933;27;95919;-54
2021/08/12 10:49:35;;;;;;;8.85;6.22;;;17.60;71.10;;;;;;5025596;27;96080;-54
2021/08/12 10:52:09;;;;;;;8.00;5.55;;;17.60;71.40;;;;;;5024200;27;96704;-55
2021/08/12 10:54:41;;;;;;;6.55;5.70;;;17.70;70.60;;;;;;5025428;27;96054;-56
2021/08/12 10:57:20;;;;;;;9.55;6.53;;;17.70;70.40;;;;;;5026203;27;95817;-54
2021/08/12 10:59:52;;;;;;;7.97;5.93;;;17.70;70.40;;;;;;5025881;27;95472;-55
2021/08/12 11:02:31;;;;;;;9.15;5.55;;;17.70;70.30;;;;;;5018805;27;96893;-55
2021/08/12 11:05:05;;;;;;;9.00;5.47;;;17.80;70.20;;;;;;5038524;27;97594;-53
2021/08/12 11:07:39;;;;;;;9.68;6.35;;;17.80;70.10;;;;;;5023616;27;95367;-54
2021/08/12 11:10:12;;;;;;;7.72;5.88;;;17.80;70.00;;;;;;5023378;27;95383;-55
2021/08/12 11:12:57;;;;;;;9.10;5.50;;;17.80;70.00;;;;;;5024902;27;96049;-55
2021/08/12 11:15:40;;;;;;;6.78;5.40;;;17.70;69.80;;;;;;5020711;27;96719;-54
2021/08/12 11:18:15;;;;;;;6.82;4.75;;;17.80;69.80;;;;;;5025762;27;96685;-54
2021/08/12 11:20:48;;;;;;;7.82;4.78;;;17.80;69.90;;;;;;5024972;27;95879;-55
2021/08/12 11:23:21;;;;;;;8.60;5.20;;;17.80;69.80;;;;;;5023689;27;95910;-54
2021/08/12 11:26:06;;;;;;;11.35;5.82;;;17.70;69.70;;;;;;5024124;27;96011;-54
2021/08/12 11:28:42;;;;;;;8.02;5.63;;;17.70;69.70;;;;;;5026088;27;96381;-55
2021/08/12 11:31:21;;;;;;;6.65;4.80;;;17.70;69.70;;;;;;5023008;27;100275;-54
2021/08/12 11:33:56;;;;;;;6.80;5.05;;;17.70;69.70;;;;;;5018194;27;96010;-55
2021/08/12 11:36:34;;;;;;;7.10;4.75;;;17.70;69.70;;;;;;5011495;27;95823;-54
2021/08/12 11:39:08;;;;;;;5.93;4.70;;;17.70;69.70;;;;;;5027149;28;95256;-54
2021/08/12 11:41:44;;;;;;;5.55;4.50;;;17.70;69.60;;;;;;5025781;27;95719;-53
2021/08/12 11:44:17;;;;;;;6.60;4.47;;;17.70;69.60;;;;;;5027093;28;96057;-52
2021/08/12 11:46:49;;;;;;;6.85;5.43;;;17.70;69.60;;;;;;5022220;27;97913;-53
2021/08/12 11:49:21;;;;;;;7.65;5.20;;;17.70;69.60;;;;;;5008528;28;95732;-53
2021/08/12 11:51:59;;;;;;;6.07;4.63;;;17.70;69.50;;;;;;5025620;27;96403;-56
2021/08/12 11:54:30;;;;;;;6.57;4.63;;;17.70;69.50;;;;;;5026545;28;96330;-56
2021/08/12 11:57:02;;;;;;;9.10;4.78;;;17.70;69.50;;;;;;5024640;27;96398;-53
2021/08/12 11:59:32;;;;;;;7.22;4.43;;;17.70;69.50;;;;;;5025647;28;95908;-52
2021/08/12 12:02:11;;;;;;;5.47;4.38;;;17.70;69.40;;;;;;5003515;28;96111;-56
2021/08/12 12:04:43;;;;;;;6.45;4.30;;;17.60;69.40;;;;;;5025233;27;96359;-54
2021/08/12 12:07:13;;;;;;;5.68;4.50;;;17.60;69.40;;;;;;5023686;27;95853;-55
2021/08/12 12:09:43;;;;;;;8.20;4.97;;;17.60;69.40;;;;;;5026142;27;95287;-53
2021/08/12 12:12:13;;;;;;;4.95;3.83;;;17.60;69.40;;;;;;5026070;27;95829;-55
2021/08/12 12:14:44;;;;;;;5.32;4.00;;;17.60;69.50;;;;;;5005923;27;96196;-53
2021/08/12 12:17:22;;;;;;;5.70;3.92;;;17.60;69.50;;;;;;5020700;27;95960;-56
2021/08/12 12:20:09;;;;;;;4.95;3.85;;;17.60;69.40;;;;;;5006731;27;95666;-55
2021/08/12 12:23:06;;;;;;;6.50;4.32;;;17.60;69.40;;;;;;5025524;27;95333;-53
2021/08/12 12:25:39;;;;;;;4.85;3.70;;;17.60;69.40;;;;;;5025825;27;95998;-54
2021/08/12 12:28:14;;;;;;;4.97;3.53;;;17.60;69.40;;;;;;5026181;27;96708;-56
2021/08/12 12:30:46;;;;;;;4.82;3.53;;;17.50;69.40;;;;;;5021683;27;96011;-55
2021/08/12 12:33:24;;;;;;;4.70;3.63;;;17.50;69.40;;;;;;5021360;27;98372;-52
2021/08/12 12:36:04;;;;;;;5.38;3.83;;;17.50;69.40;;;;;;5010967;27;96522;-57
2021/08/12 12:38:35;;;;;;;5.93;4.07;;;17.50;69.40;;;;;;5005764;27;95364;-56
2021/08/12 12:41:10;;;;;;;6.35;4.38;;;17.50;69.40;;;;;;5015769;27;95727;-56
2021/08/12 12:43:41;;;;;;;6.20;4.13;;;17.50;69.40;;;;;;5025208;28;95959;-58
2021/08/12 12:46:12;;;;;;;6.88;4.18;;;17.50;69.40;;;;;;5008910;27;95979;-54
2021/08/12 12:48:45;;;;;;;6.45;4.15;;;17.40;69.20;;;;;;5027065;28;95830;-52
2021/08/12 12:51:28;;;;;;;5.93;3.42;;;17.30;69.30;;;;;;5027893;27;95696;-51
2021/08/12 12:54:00;;;;;;;6.65;3.55;;;17.40;69.70;;;;;;5029539;28;96464;-54
2021/08/12 12:56:33;;;;;;;;;;;17.50;69.70;;;;;;5010449;28;96449;-50
2021/08/12 12:59:14;;;;;;;4.28;3.25;;;17.60;69.60;;;;;;5028284;28;95683;-52
2021/08/12 13:01:53;;;;;;;;;;;17.70;69.50;;;;;;5025611;27;95829;-50
2021/08/12 13:04:24;;;;;;;5.53;3.15;;;17.80;69.30;;;;;;5008961;28;96418;-51
2021/08/12 13:06:54;;;;;;;4.65;3.22;;;17.90;69.30;;;;;;5027719;28;96540;-55
2021/08/12 13:09:38;;;;;;;4.50;3.22;;;18.00;69.20;;;;;;5028776;28;95861;-52
2021/08/12 13:12:28;;;;;;;4.70;3.28;;;18.00;69.10;;;;;;5029526;27;96555;-52
2021/08/12 13:15:18;;;;;;;5.10;3.28;;;18.10;69.00;;;;;;5029613;27;95198;-53
2021/08/12 13:18:00;;;;;;;5.05;3.25;;;18.20;69.00;;;;;;5028688;28;96419;-55
2021/08/12 13:20:41;;;;;;;4.45;3.03;;;18.20;69.00;;;;;;5026721;27;96615;-53